aviador You're here:

KECG Decoded Metar

ELIZABETH CITY in NC, USA
Report Time2018-01-17 06:41:00
UTC Time2018-01-17 06:46:15
Flight Rules vfr VFR
WindCalm
Visibility9999 m
Phenomena:N/A
Clouds:N/A
CeilingNone
Temp-2°C (ISA -17)
Dew Point-2°C (100% RH)
AAT-4.3°C
QNH1026 hPa
Density Alt-2,415 ft
Elevation36 ft
Report Wrong Elevation
Raw Report
KECG 170641Z AUTO 00000KT 9SM CLR M02/M02 A3029 RMK AO2 T10171017
$=

Extra information for KECG:More info

Metar Taf Metar & Taf Last 4 Metars F.Rules Stats Wind Profile Meteogram Temp Stats Airport Information Weather charts Add Link Nearby VenuesMetar ALERT Operation Metar Decoded Social comments

AIRNAV info for KECG